Time;durP1;ratioP1;P1;durP2;ratioP2;P2;SDS_P1;SDS_P2;PMS_P1;PMS_P2;Temp;Humidity;BMP_temperature;BMP_pressure;BME280_temperature;BME280_humidity;BME280_pressure;Samples;Min_cycle;Max_cycle;Signal;HPM_P1;HPM_P2
2022/01/18 00:01:35;;;;;;;16.17;8.13;;;;;;;;;;5037352;28;20037;-69
2022/01/18 00:04:21;;;;;;;13.88;7.80;;;;;;;;;;5081566;28;20017;-70
2022/01/18 00:07:06;;;;;;;14.75;8.25;;;;;;;;;;5049789;28;20078;-69
2022/01/18 00:09:52;;;;;;;15.55;8.73;;;;;;;;;;5059943;28;20072;-72
2022/01/18 00:18:13;;;;;;;12.38;7.32;;;;;;;;;;5065578;28;20024;-72
2022/01/18 00:23:56;;;;;;;15.52;8.82;;;;;;;;;;5061730;28;20060;-71
2022/01/18 00:26:41;;;;;;;15.18;9.40;;;;;;;;;;5062379;28;20041;-70
2022/01/18 00:29:29;;;;;;;12.60;7.88;;;;;;;;;;5049769;28;20048;-74
2022/01/18 00:33:11;;;;;;;15.82;9.05;;;;;;;;;;5061623;28;20025;-71
2022/01/18 00:35:25;;;;;;;12.07;8.05;;;;;;;;;;5055380;28;20032;-71
2022/01/18 00:38:29;;;;;;;13.52;7.63;;;;;;;;;;5081998;28;20108;-72
2022/01/18 00:41:17;;;;;;;14.82;10.30;;;;;;;;;;5068622;28;20036;-71
2022/01/18 00:44:02;;;;;;;17.95;10.23;;;;;;;;;;5045800;28;20170;-71
2022/01/18 00:46:48;;;;;;;15.60;9.68;;;;;;;;;;5068398;28;20111;-69
2022/01/18 00:49:40;;;;;;;14.32;8.88;;;;;;;;;;5047533;28;20040;-72
2022/01/18 00:52:26;;;;;;;17.65;10.40;;;;;;;;;;5049946;28;20111;-74
2022/01/18 00:55:13;;;;;;;15.98;9.75;;;;;;;;;;5049536;28;20028;-74
2022/01/18 00:57:59;;;;;;;15.68;9.80;;;;;;;;;;5045631;28;20380;-73
2022/01/18 01:00:44;;;;;;;17.35;9.38;;;;;;;;;;5042043;28;20037;-72
2022/01/18 01:03:29;;;;;;;15.05;9.68;;;;;;;;;;5050805;28;20025;-73
2022/01/18 01:06:14;;;;;;;14.23;9.05;;;;;;;;;;5064106;28;20044;-72
2022/01/18 01:09:00;;;;;;;16.73;10.68;;;;;;;;;;5036721;28;20043;-76
2022/01/18 01:11:46;;;;;;;16.73;10.15;;;;;;;;;;5069297;28;20089;-73
2022/01/18 01:14:33;;;;;;;14.20;9.02;;;;;;;;;;5065679;28;20166;-73
2022/01/18 01:41:51;;;;;;;15.38;8.52;;;;;;;;;;5061962;28;20028;-75
2022/01/18 01:44:37;;;;;;;17.23;9.45;;;;;;;;;;5061845;28;20150;-81
2022/01/18 01:47:33;;;;;;;13.77;8.60;;;;;;;;;;5054720;28;20440;-80
2022/01/18 01:50:21;;;;;;;14.70;8.95;;;;;;;;;;5047607;28;20071;-82
2022/01/18 01:53:06;;;;;;;15.02;9.82;;;;;;;;;;5056967;28;20024;-81
2022/01/18 01:55:52;;;;;;;15.13;8.57;;;;;;;;;;5067628;28;20020;-80
2022/01/18 01:58:37;;;;;;;18.27;11.07;;;;;;;;;;5052988;28;20139;-69
2022/01/18 02:01:23;;;;;;;16.10;10.07;;;;;;;;;;5070717;28;20120;-70
2022/01/18 02:04:08;;;;;;;13.57;8.55;;;;;;;;;;5066960;28;22294;-74
2022/01/18 02:06:53;;;;;;;17.33;10.88;;;;;;;;;;5054277;28;20047;-75
2022/01/18 02:09:38;;;;;;;19.98;10.57;;;;;;;;;;5067498;28;20567;-76
2022/01/18 02:12:24;;;;;;;19.10;11.90;;;;;;;;;;5051666;28;20028;-75
2022/01/18 02:15:16;;;;;;;17.30;10.27;;;;;;;;;;5070689;28;20075;-78
2022/01/18 02:21:48;;;;;;;16.25;9.98;;;;;;;;;;5064527;28;20268;-72
2022/01/18 02:24:14;;;;;;;15.60;10.55;;;;;;;;;;5063319;28;20177;-72
2022/01/18 02:27:00;;;;;;;17.73;10.27;;;;;;;;;;5051737;28;20091;-73
2022/01/18 02:29:45;;;;;;;19.95;11.30;;;;;;;;;;5064502;28;20166;-73
2022/01/18 02:32:30;;;;;;;17.80;8.63;;;;;;;;;;5062649;28;20382;-74
2022/01/18 02:35:16;;;;;;;18.63;11.52;;;;;;;;;;5061915;28;20028;-71
2022/01/18 02:38:01;;;;;;;16.85;10.00;;;;;;;;;;5062507;28;20028;-82
2022/01/18 02:40:46;;;;;;;21.95;11.27;;;;;;;;;;5058946;28;20029;-72
2022/01/18 02:43:47;;;;;;;17.35;10.63;;;;;;;;;;5055827;28;20025;-72
2022/01/18 02:46:33;;;;;;;18.42;11.05;;;;;;;;;;5039105;28;20028;-72
2022/01/18 02:49:18;;;;;;;17.80;11.45;;;;;;;;;;5040791;28;20472;-72
2022/01/18 02:52:03;;;;;;;19.88;11.15;;;;;;;;;;5050135;28;20035;-72
2022/01/18 02:54:49;;;;;;;18.42;10.70;;;;;;;;;;5052743;28;20047;-77
2022/01/18 02:57:42;;;;;;;19.85;11.65;;;;;;;;;;5076815;28;20024;-75
2022/01/18 03:00:32;;;;;;;18.33;10.95;;;;;;;;;;5060421;28;20388;-72
2022/01/18 03:03:17;;;;;;;19.65;12.23;;;;;;;;;;5038396;28;20028;-73
2022/01/18 03:06:06;;;;;;;15.20;10.65;;;;;;;;;;5062695;28;20483;-73
2022/01/18 03:08:51;;;;;;;16.97;11.50;;;;;;;;;;5043584;28;20429;-73
2022/01/18 03:11:37;;;;;;;18.27;11.45;;;;;;;;;;5067766;28;20281;-73
2022/01/18 03:14:22;;;;;;;18.15;10.40;;;;;;;;;;5061155;28;20044;-73
2022/01/18 03:17:08;;;;;;;16.42;9.85;;;;;;;;;;5064755;28;20039;-70
2022/01/18 03:19:53;;;;;;;20.55;12.25;;;;;;;;;;5068983;28;20426;-70
2022/01/18 03:22:39;;;;;;;18.45;11.55;;;;;;;;;;5057764;28;20025;-69
2022/01/18 03:28:10;;;;;;;19.55;11.57;;;;;;;;;;5070210;28;20076;-68
2022/01/18 03:30:58;;;;;;;21.88;12.50;;;;;;;;;;5052988;28;20074;-71
2022/01/18 03:33:43;;;;;;;19.13;12.73;;;;;;;;;;5067220;28;20398;-72
2022/01/18 03:36:28;;;;;;;22.60;11.63;;;;;;;;;;5067557;28;20052;-72
2022/01/18 03:39:13;;;;;;;24.15;12.95;;;;;;;;;;5067451;28;20024;-72
2022/01/18 03:42:28;;;;;;;19.60;11.32;;;;;;;;;;5051044;28;20470;-71
2022/01/18 03:45:06;;;;;;;18.73;11.63;;;;;;;;;;5061481;28;20035;-71
2022/01/18 03:47:54;;;;;;;19.15;10.55;;;;;;;;;;5059272;28;20028;-72
2022/01/18 03:50:39;;;;;;;22.58;12.60;;;;;;;;;;5066140;28;20063;-68
2022/01/18 03:53:25;;;;;;;17.33;10.50;;;;;;;;;;5044858;28;20317;-73
2022/01/18 03:56:10;;;;;;;23.83;12.40;;;;;;;;;;5065986;28;20062;-71
2022/01/18 03:58:55;;;;;;;15.38;10.38;;;;;;;;;;5070217;28;20107;-72
2022/01/18 04:01:41;;;;;;;16.42;10.68;;;;;;;;;;5060574;28;20037;-71
2022/01/18 04:04:26;;;;;;;16.63;10.73;;;;;;;;;;5050372;28;20035;-71
2022/01/18 04:07:11;;;;;;;24.75;13.25;;;;;;;;;;5056075;28;20136;-71
2022/01/18 04:09:56;;;;;;;26.98;13.18;;;;;;;;;;5065680;28;20028;-70
2022/01/18 04:12:42;;;;;;;17.90;11.38;;;;;;;;;;5054371;28;20475;-73
2022/01/18 04:15:29;;;;;;;19.98;11.32;;;;;;;;;;5066013;28;20025;-74
2022/01/18 04:18:25;;;;;;;17.83;11.52;;;;;;;;;;5066665;28;20127;-74
2022/01/18 04:27:18;;;;;;;20.48;13.52;;;;;;;;;;5070244;28;20061;-71
2022/01/18 04:30:05;;;;;;;25.45;13.45;;;;;;;;;;5071817;28;20028;-83
2022/01/18 04:32:50;;;;;;;21.77;12.85;;;;;;;;;;5057526;28;20029;-82
2022/01/18 04:35:35;;;;;;;25.15;12.75;;;;;;;;;;5063640;28;20040;-82
2022/01/18 04:38:21;;;;;;;25.50;12.13;;;;;;;;;;5061788;28;20028;-81
2022/01/18 04:41:10;;;;;;;25.58;12.85;;;;;;;;;;5069184;28;20028;-82
2022/01/18 04:49:48;;;;;;;19.85;12.55;;;;;;;;;;5091317;22;20044;-74
2022/01/18 04:52:33;;;;;;;27.58;13.32;;;;;;;;;;5061533;28;20416;-74
2022/01/18 04:55:19;;;;;;;21.88;13.52;;;;;;;;;;5041670;28;20036;-74
2022/01/18 04:58:04;;;;;;;24.08;13.35;;;;;;;;;;5074864;28;20028;-74
2022/01/18 05:00:50;;;;;;;21.90;13.57;;;;;;;;;;5060349;28;20021;-78
2022/01/18 05:03:35;;;;;;;23.25;13.00;;;;;;;;;;5068327;28;20027;-75
2022/01/18 05:06:21;;;;;;;25.42;14.15;;;;;;;;;;5068163;28;20024;-72
2022/01/18 05:09:08;;;;;;;24.02;15.32;;;;;;;;;;5068731;28;20037;-71
2022/01/18 05:12:04;;;;;;;27.17;17.02;;;;;;;;;;5067747;28;20029;-74
2022/01/18 05:14:49;;;;;;;34.90;19.42;;;;;;;;;;5064348;28;20036;-72
2022/01/18 05:17:57;;;;;;;35.47;19.48;;;;;;;;;;5067010;28;20391;-73
2022/01/18 05:24:00;;;;;;;34.33;18.38;;;;;;;;;;5045951;28;20032;-83
2022/01/18 05:26:46;;;;;;;30.98;20.00;;;;;;;;;;5068088;28;20041;-70
2022/01/18 05:29:31;;;;;;;33.88;18.88;;;;;;;;;;5052909;28;20044;-70
2022/01/18 05:32:16;;;;;;;32.65;18.58;;;;;;;;;;5053771;28;20036;-68
2022/01/18 05:35:01;;;;;;;31.55;19.60;;;;;;;;;;5056427;28;20017;-71
2022/01/18 05:37:47;;;;;;;35.58;20.00;;;;;;;;;;5060530;28;20380;-70
2022/01/18 05:40:32;;;;;;;32.40;19.83;;;;;;;;;;5047227;28;20466;-70
2022/01/18 05:43:18;;;;;;;28.80;19.00;;;;;;;;;;5059359;28;20016;-74
2022/01/18 05:46:04;;;;;;;38.45;22.30;;;;;;;;;;5044273;28;20033;-75
2022/01/18 05:48:49;;;;;;;34.45;18.90;;;;;;;;;;5053024;28;20487;-76
2022/01/18 05:51:37;;;;;;;31.10;19.27;;;;;;;;;;5066268;28;20032;-76
2022/01/18 05:54:22;;;;;;;30.17;18.55;;;;;;;;;;5066172;28;20035;-76
2022/01/18 05:57:07;;;;;;;33.38;19.02;;;;;;;;;;5053124;28;20363;-75
2022/01/18 06:00:00;;;;;;;34.13;18.98;;;;;;;;;;5056847;28;20032;-73
2022/01/18 06:08:47;;;;;;;30.85;19.00;;;;;;;;;;5068214;28;20079;-74
2022/01/18 06:11:32;;;;;;;29.02;17.70;;;;;;;;;;5056612;28;20028;-74
2022/01/18 06:14:18;;;;;;;31.40;18.00;;;;;;;;;;5072329;28;20024;-72
2022/01/18 06:17:03;;;;;;;35.17;19.77;;;;;;;;;;5038352;28;20460;-71
2022/01/18 06:19:48;;;;;;;31.58;19.67;;;;;;;;;;5050789;28;20107;-68
2022/01/18 06:22:34;;;;;;;33.35;21.42;;;;;;;;;;5044256;28;20033;-67
2022/01/18 06:25:20;;;;;;;30.17;19.08;;;;;;;;;;5086148;28;20017;-67
2022/01/18 06:28:05;;;;;;;26.63;17.70;;;;;;;;;;5053476;28;20503;-67
2022/01/18 06:30:50;;;;;;;34.55;20.95;;;;;;;;;;5051094;28;20079;-67
2022/01/18 06:33:36;;;;;;;32.78;20.52;;;;;;;;;;5055982;28;20115;-67
2022/01/18 06:36:21;;;;;;;35.05;19.35;;;;;;;;;;5038616;28;20556;-69
2022/01/18 06:39:06;;;;;;;28.83;19.50;;;;;;;;;;5066737;28;20024;-72
2022/01/18 06:41:52;;;;;;;35.40;19.77;;;;;;;;;;5045042;28;20032;-74
2022/01/18 06:44:37;;;;;;;29.95;19.08;;;;;;;;;;5036727;28;20029;-71
2022/01/18 06:47:22;;;;;;;33.35;19.33;;;;;;;;;;5058061;28;20032;-73
2022/01/18 06:50:10;;;;;;;30.88;19.45;;;;;;;;;;5063475;28;20048;-76
2022/01/18 06:52:56;;;;;;;29.40;18.30;;;;;;;;;;5061829;28;20394;-69
2022/01/18 06:55:41;;;;;;;35.33;19.48;;;;;;;;;;5054503;28;20036;-80
2022/01/18 06:58:26;;;;;;;38.20;20.15;;;;;;;;;;5060483;28;20112;-72
2022/01/18 07:01:12;;;;;;;33.00;18.02;;;;;;;;;;5050475;28;20032;-71
2022/01/18 07:03:58;;;;;;;41.88;21.63;;;;;;;;;;5043264;28;20037;-71
2022/01/18 07:06:45;;;;;;;30.35;20.58;;;;;;;;;;5052033;28;20111;-71
2022/01/18 07:09:32;;;;;;;34.17;20.17;;;;;;;;;;5042731;28;20040;-75
2022/01/18 07:12:18;;;;;;;31.73;19.50;;;;;;;;;;5064924;28;20029;-79
2022/01/18 07:15:06;;;;;;;35.72;20.10;;;;;;;;;;5050345;28;20117;-74
2022/01/18 07:17:51;;;;;;;35.08;20.30;;;;;;;;;;5069019;28;20036;-72
2022/01/18 07:20:38;;;;;;;30.95;19.73;;;;;;;;;;5054957;28;20036;-74
2022/01/18 07:23:23;;;;;;;34.95;20.10;;;;;;;;;;5065564;28;20055;-73
2022/01/18 07:26:08;;;;;;;34.05;20.23;;;;;;;;;;5061623;28;20101;-70
2022/01/18 07:28:54;;;;;;;32.35;22.02;;;;;;;;;;5062507;28;20537;-61
2022/01/18 07:31:39;;;;;;;33.28;20.02;;;;;;;;;;5060191;28;20037;-63
2022/01/18 07:34:25;;;;;;;34.30;19.88;;;;;;;;;;5051694;28;20443;-62
2022/01/18 07:37:10;;;;;;;34.55;22.08;;;;;;;;;;5061993;28;20032;-63
2022/01/18 07:39:55;;;;;;;31.15;18.75;;;;;;;;;;5047939;28;20431;-79
2022/01/18 07:42:40;;;;;;;39.17;21.10;;;;;;;;;;5058553;28;20033;-77
2022/01/18 07:45:26;;;;;;;31.00;19.27;;;;;;;;;;5065278;28;20656;-80
2022/01/18 07:48:11;;;;;;;36.28;21.40;;;;;;;;;;5059255;28;20454;-72
2022/01/18 07:50:58;;;;;;;32.40;18.90;;;;;;;;;;5052212;28;20048;-77
2022/01/18 07:53:43;;;;;;;28.83;18.00;;;;;;;;;;5067560;28;20040;-70
2022/01/18 07:56:29;;;;;;;36.70;18.30;;;;;;;;;;5053710;28;20029;-70
2022/01/18 07:59:14;;;;;;;28.10;18.33;;;;;;;;;;5049358;28;20365;-77
2022/01/18 08:01:59;;;;;;;29.25;17.48;;;;;;;;;;5067288;28;20098;-75
2022/01/18 08:04:44;;;;;;;34.22;18.27;;;;;;;;;;5055074;28;20101;-75
2022/01/18 08:07:30;;;;;;;27.75;16.02;;;;;;;;;;5049886;28;20038;-74
2022/01/18 08:10:18;;;;;;;31.98;17.98;;;;;;;;;;5053649;28;20475;-72
2022/01/18 08:13:03;;;;;;;31.17;17.52;;;;;;;;;;5052594;28;20422;-70
2022/01/18 08:15:58;;;;;;;36.60;17.90;;;;;;;;;;5067821;28;20042;-72
2022/01/18 08:18:43;;;;;;;25.77;15.55;;;;;;;;;;5055959;28;20032;-72
2022/01/18 08:21:28;;;;;;;30.13;17.35;;;;;;;;;;5067079;28;20411;-72
2022/01/18 08:24:13;;;;;;;35.20;18.83;;;;;;;;;;5052529;28;20039;-70
2022/01/18 08:26:59;;;;;;;27.80;16.70;;;;;;;;;;5046880;28;20040;-79
2022/01/18 08:29:44;;;;;;;26.67;16.42;;;;;;;;;;5065417;28;20031;-74
2022/01/18 08:32:29;;;;;;;29.60;16.95;;;;;;;;;;5054336;28;20028;-72
2022/01/18 08:35:14;;;;;;;28.13;15.98;;;;;;;;;;5049495;28;20507;-72
2022/01/18 08:38:00;;;;;;;27.75;16.08;;;;;;;;;;5059188;28;20082;-73
2022/01/18 08:40:45;;;;;;;26.90;16.52;;;;;;;;;;5050177;28;20029;-72
2022/01/18 08:43:31;;;;;;;26.83;16.10;;;;;;;;;;5046715;28;20039;-78
2022/01/18 08:46:16;;;;;;;26.83;16.98;;;;;;;;;;5053461;28;20028;-78
2022/01/18 08:49:04;;;;;;;28.30;18.15;;;;;;;;;;5060903;28;20140;-75
2022/01/18 08:51:49;;;;;;;30.13;18.60;;;;;;;;;;5062135;28;20034;-78
2022/01/18 08:54:34;;;;;;;27.92;16.73;;;;;;;;;;5058612;28;20025;-80
2022/01/18 08:57:19;;;;;;;29.63;16.35;;;;;;;;;;5062035;28;20509;-76
2022/01/18 09:00:08;;;;;;;30.73;18.33;;;;;;;;;;5061648;28;20488;-76
2022/01/18 09:02:53;;;;;;;26.33;15.73;;;;;;;;;;5051291;28;20070;-70
2022/01/18 09:05:38;;;;;;;29.27;17.13;;;;;;;;;;5053095;28;20114;-74
2022/01/18 09:08:24;;;;;;;32.17;17.02;;;;;;;;;;5067396;28;20537;-72
2022/01/18 09:11:11;;;;;;;28.60;17.95;;;;;;;;;;5050065;28;20491;-70
2022/01/18 09:13:57;;;;;;;31.88;16.10;;;;;;;;;;5067456;28;20028;-70
2022/01/18 09:16:42;;;;;;;31.92;17.52;;;;;;;;;;5067787;28;20430;-72
2022/01/18 09:19:27;;;;;;;28.10;17.65;;;;;;;;;;5062084;28;20502;-70
2022/01/18 09:22:12;;;;;;;29.13;16.63;;;;;;;;;;5066128;28;20040;-73
2022/01/18 09:24:58;;;;;;;24.25;14.82;;;;;;;;;;5063351;28;20024;-77
2022/01/18 09:27:43;;;;;;;27.52;15.50;;;;;;;;;;5044503;28;20458;-76
2022/01/18 09:30:29;;;;;;;26.60;17.02;;;;;;;;;;5078752;28;20042;-73
2022/01/18 09:33:14;;;;;;;35.92;16.67;;;;;;;;;;5066850;28;20029;-68
2022/01/18 09:35:59;;;;;;;27.85;15.95;;;;;;;;;;5069051;28;20120;-64
2022/01/18 09:38:45;;;;;;;26.30;15.65;;;;;;;;;;5071630;28;20073;-59
2022/01/18 09:41:34;;;;;;;25.30;13.40;;;;;;;;;;5070168;28;20033;-67
2022/01/18 09:44:19;;;;;;;25.88;16.15;;;;;;;;;;5063721;28;20028;-68
2022/01/18 09:47:05;;;;;;;25.40;13.95;;;;;;;;;;5064041;28;20052;-71
2022/01/18 09:49:51;;;;;;;24.75;14.35;;;;;;;;;;5067126;28;20063;-69
2022/01/18 09:52:37;;;;;;;24.40;15.43;;;;;;;;;;5056699;28;20024;-69
2022/01/18 09:55:23;;;;;;;28.52;15.52;;;;;;;;;;5055214;28;20116;-68
2022/01/18 09:58:09;;;;;;;22.60;16.48;;;;;;;;;;5076740;28;20046;-71
2022/01/18 10:00:55;;;;;;;24.73;16.00;;;;;;;;;;5065186;28;20215;-78
2022/01/18 10:03:41;;;;;;;23.90;15.90;;;;;;;;;;5065919;28;20078;-80
2022/01/18 10:06:26;;;;;;;25.40;18.15;;;;;;;;;;5070387;28;20495;-79
2022/01/18 10:09:12;;;;;;;29.60;17.48;;;;;;;;;;5069788;28;20127;-80
2022/01/18 10:12:05;;;;;;;28.98;18.45;;;;;;;;;;5069309;28;20511;-82
2022/01/18 10:14:52;;;;;;;30.40;19.00;;;;;;;;;;5060899;28;20036;-86
2022/01/18 10:17:39;;;;;;;28.40;18.48;;;;;;;;;;5066628;28;20107;-67
2022/01/18 10:20:25;;;;;;;30.33;18.70;;;;;;;;;;5047279;28;20028;-70
2022/01/18 10:23:18;;;;;;;29.10;16.30;;;;;;;;;;5063730;28;20042;-69
2022/01/18 10:26:19;;;;;;;29.50;16.23;;;;;;;;;;5050990;28;20024;-68
2022/01/18 10:29:05;;;;;;;27.00;15.50;;;;;;;;;;5061543;28;20047;-67
2022/01/18 10:37:26;;;;;;;23.05;13.57;;;;;;;;;;5060742;28;20082;-74
2022/01/18 10:40:16;;;;;;;28.55;15.90;;;;;;;;;;5068536;28;20059;-79
2022/01/18 10:43:05;;;;;;;;;;;;;;;;;;5069646;28;20036;-80
2022/01/18 10:45:50;;;;;;;27.33;14.38;;;;;;;;;;5067451;28;19981;-77
2022/01/18 10:48:44;;;;;;;21.73;11.82;;;;;;;;;;5067357;28;20054;-74
2022/01/18 10:51:30;;;;;;;24.55;13.98;;;;;;;;;;5052255;28;20032;-73
2022/01/18 10:54:15;;;;;;;22.48;13.73;;;;;;;;;;5070817;28;20028;-77
2022/01/18 10:57:02;;;;;;;26.60;13.02;;;;;;;;;;5062501;28;20020;-74
2022/01/18 10:59:48;;;;;;;21.30;12.50;;;;;;;;;;5065806;28;20013;-72
2022/01/18 11:02:37;;;;;;;21.17;12.18;;;;;;;;;;5068933;28;20055;-70
2022/01/18 11:05:25;;;;;;;18.58;11.88;;;;;;;;;;5068250;28;20040;-76
2022/01/18 11:08:15;;;;;;;22.33;11.90;;;;;;;;;;5053788;28;20098;-76
2022/01/18 11:11:00;;;;;;;17.98;11.52;;;;;;;;;;5062470;28;20147;-71
2022/01/18 11:13:45;;;;;;;22.55;12.57;;;;;;;;;;5053185;28;20024;-72
2022/01/18 11:16:36;;;;;;;32.08;29.00;;;;;;;;;;5064928;28;20056;-70
2022/01/18 11:22:10;;;;;;;23.17;12.93;;;;;;;;;;5066299;28;20068;-71
2022/01/18 11:24:57;;;;;;;19.67;11.90;;;;;;;;;;5065655;28;20497;-73
2022/01/18 11:27:47;;;;;;;19.70;12.30;;;;;;;;;;5068600;28;20028;-73
2022/01/18 11:30:35;;;;;;;18.27;11.60;;;;;;;;;;5062316;28;20479;-74
2022/01/18 11:33:22;;;;;;;21.25;11.23;;;;;;;;;;5065188;28;20031;-71
2022/01/18 11:36:10;;;;;;;18.42;10.85;;;;;;;;;;5066919;28;20384;-71
2022/01/18 11:39:04;;;;;;;20.17;10.57;;;;;;;;;;5046425;28;20028;-80
2022/01/18 11:42:03;;;;;;;18.50;10.88;;;;;;;;;;5053614;28;20119;-72
2022/01/18 11:44:49;;;;;;;18.77;11.02;;;;;;;;;;5052344;28;20037;-76
2022/01/18 11:47:34;;;;;;;17.27;8.88;;;;;;;;;;5060330;28;20399;-68
2022/01/18 11:50:20;;;;;;;16.73;9.98;;;;;;;;;;5039817;28;20036;-74
2022/01/18 11:53:21;;;;;;;18.58;10.25;;;;;;;;;;5068906;28;20032;-69
2022/01/18 11:56:11;;;;;;;18.50;10.75;;;;;;;;;;5063484;28;20111;-70
2022/01/18 11:59:14;;;;;;;20.05;11.10;;;;;;;;;;5076752;28;20024;-67
2022/01/18 12:02:00;;;;;;;1999.90;999.90;;;;;;;;;;5057584;28;20372;-66
2022/01/18 12:04:54;;;;;;;1010.08;509.15;;;;;;;;;;5068061;28;20026;-69
2022/01/18 12:07:41;;;;;;;1999.90;999.90;;;;;;;;;;5060517;28;20033;-75
2022/01/18 12:10:30;;;;;;;1999.90;999.90;;;;;;;;;;5061611;28;20123;-68
2022/01/18 12:13:26;;;;;;;26.73;24.42;;;;;;;;;;5068462;28;20111;-70
2022/01/18 12:16:18;;;;;;;15.85;8.80;;;;;;;;;;5066309;28;20556;-71
2022/01/18 12:19:08;;;;;;;11.93;7.40;;;;;;;;;;5047747;28;20024;-71
2022/01/18 12:21:55;;;;;;;15.40;7.38;;;;;;;;;;5051322;28;20131;-74
2022/01/18 12:24:46;;;;;;;16.10;8.40;;;;;;;;;;5051022;28;20036;-72
2022/01/18 12:27:33;;;;;;;16.45;9.15;;;;;;;;;;5062318;28;20056;-69
2022/01/18 12:33:43;;;;;;;19.00;8.90;;;;;;;;;;5057710;28;20107;-69
2022/01/18 12:36:29;;;;;;;15.73;8.27;;;;;;;;;;5065837;28;20024;-69
2022/01/18 12:39:14;;;;;;;18.73;9.63;;;;;;;;;;5068822;28;20048;-70
2022/01/18 12:42:01;;;;;;;18.35;9.88;;;;;;;;;;5050439;28;20040;-71
2022/01/18 12:44:46;;;;;;;15.40;8.98;;;;;;;;;;5067055;28;20069;-79
2022/01/18 12:47:35;;;;;;;17.92;8.65;;;;;;;;;;5063206;28;20037;-68
2022/01/18 12:50:23;;;;;;;15.40;8.85;;;;;;;;;;5062186;28;20032;-68
2022/01/18 12:53:16;;;;;;;13.85;7.95;;;;;;;;;;5063131;28;20024;-68
2022/01/18 12:56:04;;;;;;;15.10;8.55;;;;;;;;;;5059598;28;20428;-69
2022/01/18 12:58:49;;;;;;;14.65;7.35;;;;;;;;;;5064616;28;20033;-67
2022/01/18 13:01:35;;;;;;;19.40;8.68;;;;;;;;;;5064079;28;20145;-79
2022/01/18 13:04:22;;;;;;;13.85;7.75;;;;;;;;;;5049029;28;20060;-71
2022/01/18 13:07:07;;;;;;;14.30;7.45;;;;;;;;;;5043234;28;20414;-75
2022/01/18 13:10:00;;;;;;;13.20;7.72;;;;;;;;;;5051371;28;20024;-73
2022/01/18 13:12:46;;;;;;;11.07;5.20;;;;;;;;;;5070746;28;20029;-75
2022/01/18 13:15:39;;;;;;;12.27;6.05;;;;;;;;;;5067581;28;20021;-73
2022/01/18 13:25:22;;;;;;;9.82;4.97;;;;;;;;;;5071171;28;20115;-74
2022/01/18 13:27:47;;;;;;;;;;;;;;;;;;5067250;28;20033;-75
2022/01/18 13:30:32;;;;;;;;;;;;;;;;;;5058417;28;19916;-77
2022/01/18 13:33:17;;;;;;;9.15;5.00;;;;;;;;;;5067024;28;19915;-79
2022/01/18 13:36:03;;;;;;;10.65;4.70;;;;;;;;;;5066941;28;20020;-76
2022/01/18 13:38:50;;;;;;;10.13;4.70;;;;;;;;;;5054306;28;20028;-84
2022/01/18 13:41:35;;;;;;;10.18;5.45;;;;;;;;;;5079544;28;20050;-78
2022/01/18 13:44:21;;;;;;;13.23;5.28;;;;;;;;;;5070992;28;20032;-82
2022/01/18 13:47:12;;;;;;;13.00;4.82;;;;;;;;;;5051838;28;20033;-81
2022/01/18 13:49:57;;;;;;;8.90;4.68;;;;;;;;;;5069437;28;20051;-79
2022/01/18 13:52:42;;;;;;;18.45;4.80;;;;;;;;;;5045805;28;20033;-78
2022/01/18 13:55:29;;;;;;;9.30;4.53;;;;;;;;;;5049651;28;20540;-82
2022/01/18 13:58:22;;;;;;;9.32;4.68;;;;;;;;;;5068337;28;20420;-77
2022/01/18 14:01:07;;;;;;;9.30;4.55;;;;;;;;;;5053190;28;20324;-80
2022/01/18 14:03:58;;;;;;;12.23;4.55;;;;;;;;;;5070087;28;20028;-83
2022/01/18 14:06:44;;;;;;;14.55;4.63;;;;;;;;;;5046843;28;20036;-82
2022/01/18 14:09:29;;;;;;;12.80;5.07;;;;;;;;;;5052301;28;20041;-77
2022/01/18 14:12:17;;;;;;;8.38;4.47;;;;;;;;;;5057700;28;20111;-86
2022/01/18 14:15:03;;;;;;;8.63;4.25;;;;;;;;;;5056576;28;20027;-69
2022/01/18 14:18:04;;;;;;;10.73;4.07;;;;;;;;;;5064094;28;20059;-80
2022/01/18 14:20:49;;;;;;;11.00;4.47;;;;;;;;;;5065437;28;20100;-78
2022/01/18 14:23:34;;;;;;;7.97;4.10;;;;;;;;;;5044477;28;20533;-81
2022/01/18 14:26:20;;;;;;;10.32;4.63;;;;;;;;;;5056038;28;21398;-83
2022/01/18 14:29:05;;;;;;;9.27;4.20;;;;;;;;;;5050572;28;20039;-77
2022/01/18 14:32:04;;;;;;;9.95;4.32;;;;;;;;;;5048997;28;20071;-81
2022/01/18 14:34:51;;;;;;;14.05;4.18;;;;;;;;;;5066539;28;20028;-80
2022/01/18 14:37:41;;;;;;;9.55;4.07;;;;;;;;;;5063928;28;20111;-72
2022/01/18 14:40:34;;;;;;;7.28;3.63;;;;;;;;;;5068297;28;20032;-72
2022/01/18 14:43:28;;;;;;;7.72;3.53;;;;;;;;;;5069389;28;20020;-73
2022/01/18 14:46:26;;;;;;;6.65;2.83;;;;;;;;;;5063823;28;20029;-71
2022/01/18 14:49:12;;;;;;;7.13;3.58;;;;;;;;;;5062928;28;20514;-70
2022/01/18 14:51:57;;;;;;;8.10;3.63;;;;;;;;;;5065349;28;20119;-79
2022/01/18 14:54:42;;;;;;;6.40;2.92;;;;;;;;;;5065943;28;20017;-70
2022/01/18 14:57:28;;;;;;;7.35;2.97;;;;;;;;;;5064446;28;20024;-71
2022/01/18 15:00:15;;;;;;;8.55;2.97;;;;;;;;;;5068146;28;20024;-70
2022/01/18 15:03:01;;;;;;;7.82;3.53;;;;;;;;;;5054418;28;20016;-72
2022/01/18 15:05:46;;;;;;;7.63;3.53;;;;;;;;;;5048461;28;20083;-74
2022/01/18 15:08:31;;;;;;;7.53;3.13;;;;;;;;;;5065290;28;20053;-74
2022/01/18 15:11:17;;;;;;;9.20;4.07;;;;;;;;;;5052577;28;20357;-75
2022/01/18 15:14:03;;;;;;;9.73;3.08;;;;;;;;;;5059478;28;20044;-74
2022/01/18 15:16:48;;;;;;;6.25;2.85;;;;;;;;;;5059242;28;20028;-71
2022/01/18 15:19:36;;;;;;;7.85;2.80;;;;;;;;;;5050595;28;20017;-73
2022/01/18 15:22:22;;;;;;;7.25;3.25;;;;;;;;;;5052690;28;20037;-72
2022/01/18 15:25:07;;;;;;;5.38;2.70;;;;;;;;;;5069122;28;20028;-72
2022/01/18 15:27:53;;;;;;;6.45;2.67;;;;;;;;;;5068561;28;20036;-73
2022/01/18 15:30:38;;;;;;;7.55;3.05;;;;;;;;;;5054301;28;20021;-69
2022/01/18 15:33:23;;;;;;;5.95;2.60;;;;;;;;;;5049523;28;20025;-73
2022/01/18 15:36:09;;;;;;;5.18;2.90;;;;;;;;;;5051442;28;20059;-74
2022/01/18 15:38:54;;;;;;;6.97;3.05;;;;;;;;;;5044238;28;20020;-76
2022/01/18 15:41:40;;;;;;;6.32;3.15;;;;;;;;;;5058168;28;20032;-74
2022/01/18 15:44:25;;;;;;;9.45;3.58;;;;;;;;;;5060120;28;20191;-74
2022/01/18 15:47:13;;;;;;;5.60;3.22;;;;;;;;;;5052790;28;20384;-69
2022/01/18 15:49:58;;;;;;;6.70;3.20;;;;;;;;;;5057383;28;20307;-68
2022/01/18 15:52:43;;;;;;;9.15;3.70;;;;;;;;;;5060604;28;20025;-68
2022/01/18 15:55:29;;;;;;;6.80;3.10;;;;;;;;;;5051090;28;20471;-67
2022/01/18 15:58:14;;;;;;;8.38;3.05;;;;;;;;;;5059058;28;20027;-69
2022/01/18 16:01:00;;;;;;;6.80;3.17;;;;;;;;;;5069956;28;20082;-67
2022/01/18 16:03:45;;;;;;;5.90;3.20;;;;;;;;;;5058447;28;20394;-69
2022/01/18 16:06:30;;;;;;;7.65;3.75;;;;;;;;;;5065195;28;20024;-73
2022/01/18 16:09:16;;;;;;;8.68;3.08;;;;;;;;;;5061553;28;20029;-76
2022/01/18 16:12:01;;;;;;;8.27;3.63;;;;;;;;;;5045925;28;20441;-77
2022/01/18 16:14:46;;;;;;;14.27;4.68;;;;;;;;;;5047413;28;20024;-76
2022/01/18 16:17:32;;;;;;;6.93;3.10;;;;;;;;;;5050560;28;20090;-77
2022/01/18 16:20:17;;;;;;;5.95;2.92;;;;;;;;;;5046575;28;20391;-77
2022/01/18 16:23:02;;;;;;;4.78;2.90;;;;;;;;;;5055345;28;20032;-76
2022/01/18 16:25:47;;;;;;;4.40;2.20;;;;;;;;;;5053807;28;20024;-66
2022/01/18 16:28:33;;;;;;;5.65;2.60;;;;;;;;;;5061380;28;20170;-81
2022/01/18 16:31:18;;;;;;;5.32;2.58;;;;;;;;;;5053042;28;20024;-83
2022/01/18 16:34:04;;;;;;;7.80;2.33;;;;;;;;;;5070818;28;20028;-85
2022/01/18 16:36:50;;;;;;;5.43;2.22;;;;;;;;;;5043006;28;20383;-86
2022/01/18 16:39:35;;;;;;;4.63;2.20;;;;;;;;;;5062111;28;20029;-83
2022/01/18 16:42:20;;;;;;;7.43;2.28;;;;;;;;;;5049334;28;20036;-82
2022/01/18 16:45:06;;;;;;;6.40;2.38;;;;;;;;;;5047666;28;20496;-79
2022/01/18 16:47:52;;;;;;;5.32;2.95;;;;;;;;;;5047693;28;20066;-79
2022/01/18 16:50:37;;;;;;;7.32;2.65;;;;;;;;;;5045892;28;20155;-75
2022/01/18 16:53:22;;;;;;;6.30;2.78;;;;;;;;;;5056854;28;20461;-80
2022/01/18 16:56:08;;;;;;;8.68;3.35;;;;;;;;;;5041704;28;20021;-78
2022/01/18 16:58:54;;;;;;;9.80;2.85;;;;;;;;;;5067103;28;20028;-80
2022/01/18 17:01:39;;;;;;;6.40;2.45;;;;;;;;;;5057990;28;20112;-80
2022/01/18 17:04:24;;;;;;;7.60;2.70;;;;;;;;;;5071868;28;20464;-81
2022/01/18 17:07:10;;;;;;;7.93;3.13;;;;;;;;;;5042201;28;20127;-66
2022/01/18 17:09:58;;;;;;;5.40;2.42;;;;;;;;;;5041868;28;20571;-64
2022/01/18 17:12:43;;;;;;;10.15;3.05;;;;;;;;;;5056646;28;20028;-61
2022/01/18 17:15:28;;;;;;;9.60;2.90;;;;;;;;;;5056635;28;20040;-61
2022/01/18 17:18:14;;;;;;;6.35;3.08;;;;;;;;;;5061904;28;20037;-62
2022/01/18 17:20:59;;;;;;;6.05;3.10;;;;;;;;;;5049695;28;20047;-67
2022/01/18 17:23:44;;;;;;;6.15;2.75;;;;;;;;;;5055571;28;20121;-66
2022/01/18 17:26:30;;;;;;;7.03;3.00;;;;;;;;;;5057905;28;20117;-65
2022/01/18 17:29:16;;;;;;;6.18;2.80;;;;;;;;;;5064409;28;20123;-67
2022/01/18 17:32:01;;;;;;;6.07;3.28;;;;;;;;;;5053052;28;20045;-66
2022/01/18 17:34:46;;;;;;;8.13;3.40;;;;;;;;;;5055540;28;20037;-64
2022/01/18 17:37:31;;;;;;;7.47;3.35;;;;;;;;;;5056679;28;20037;-67
2022/01/18 17:40:17;;;;;;;7.82;3.65;;;;;;;;;;5057044;28;20036;-60